sensor_id;sensor_type;location;lat;lon;timestamp;P1;durP1;ratioP1;P2;durP2;ratioP2
69917;SDS011;57203;42.672;23.334;2022-07-12T00:00:43;3.8;;;3.1;;
69917;SDS011;57203;42.672;23.334;2022-07-12T00:01:44;3.4;;;3.0;;
69917;SDS011;57203;42.672;23.334;2022-07-12T00:03:44;3.6;;;2.8;;
69917;SDS011;57203;42.672;23.334;2022-07-12T00:04:44;3.2;;;2.5;;
69917;SDS011;57203;42.672;23.334;2022-07-12T00:05:44;2.8;;;2.9;;
69917;SDS011;57203;42.672;23.334;2022-07-12T00:06:45;3.8;;;2.6;;
69917;SDS011;57203;42.672;23.334;2022-07-12T00:07:45;3.2;;;2.2;;
69917;SDS011;57203;42.672;23.334;2022-07-12T00:08:45;3.6;;;2.5;;
69917;SDS011;57203;42.672;23.334;2022-07-12T00:09:45;2.8;;;2.3;;
69917;SDS011;57203;42.672;23.334;2022-07-12T00:10:45;2.8;;;2.5;;
69917;SDS011;57203;42.672;23.334;2022-07-12T00:12:46;3.5;;;2.3;;
69917;SDS011;57203;42.672;23.334;2022-07-12T00:13:46;2.6;;;2.1;;
69917;SDS011;57203;42.672;23.334;2022-07-12T00:14:46;4.7;;;2.6;;
69917;SDS011;57203;42.672;23.334;2022-07-12T00:16:47;3.3;;;2.3;;
69917;SDS011;57203;42.672;23.334;2022-07-12T00:17:47;4.0;;;2.2;;
69917;SDS011;57203;42.672;23.334;2022-07-12T00:18:47;2.4;;;2.3;;
69917;SDS011;57203;42.672;23.334;2022-07-12T00:19:47;5.0;;;1.7;;
69917;SDS011;57203;42.672;23.334;2022-07-12T00:20:47;5.7;;;2.0;;
69917;SDS011;57203;42.672;23.334;2022-07-12T00:21:47;5.7;;;1.6;;
69917;SDS011;57203;42.672;23.334;2022-07-12T00:22:48;2.2;;;1.8;;
69917;SDS011;57203;42.672;23.334;2022-07-12T00:23:48;3.3;;;1.9;;
69917;SDS011;57203;42.672;23.334;2022-07-12T00:24:48;3.3;;;1.7;;
69917;SDS011;57203;42.672;23.334;2022-07-12T00:25:48;2.5;;;1.6;;
69917;SDS011;57203;42.672;23.334;2022-07-12T00:26:48;3.5;;;1.8;;
69917;SDS011;57203;42.672;23.334;2022-07-12T00:27:49;3.4;;;1.9;;
69917;SDS011;57203;42.672;23.334;2022-07-12T00:28:49;2.4;;;1.5;;
69917;SDS011;57203;42.672;23.334;2022-07-12T00:29:49;2.0;;;1.6;;
69917;SDS011;57203;42.672;23.334;2022-07-12T00:31:49;2.4;;;1.5;;
69917;SDS011;57203;42.672;23.334;2022-07-12T00:33:50;2.2;;;1.4;;
69917;SDS011;57203;42.672;23.334;2022-07-12T00:34:50;3.3;;;1.6;;
69917;SDS011;57203;42.672;23.334;2022-07-12T00:35:50;4.3;;;1.4;;
69917;SDS011;57203;42.672;23.334;2022-07-12T00:38:51;3.9;;;1.6;;
69917;SDS011;57203;42.672;23.334;2022-07-12T00:39:51;3.4;;;1.4;;
69917;SDS011;57203;42.672;23.334;2022-07-12T00:40:51;2.7;;;1.8;;
69917;SDS011;57203;42.672;23.334;2022-07-12T00:41:51;2.9;;;1.4;;
69917;SDS011;57203;42.672;23.334;2022-07-12T00:42:51;2.0;;;1.3;;
69917;SDS011;57203;42.672;23.334;2022-07-12T00:43:52;2.0;;;1.5;;
69917;SDS011;57203;42.672;23.334;2022-07-12T00:44:52;3.9;;;1.6;;
69917;SDS011;57203;42.672;23.334;2022-07-12T00:45:52;3.7;;;1.4;;
69917;SDS011;57203;42.672;23.334;2022-07-12T00:46:55;2.1;;;1.2;;
69917;SDS011;57203;42.672;23.334;2022-07-12T00:47:52;1.9;;;1.3;;
69917;SDS011;57203;42.672;23.334;2022-07-12T00:48:53;2.0;;;2.0;;
69917;SDS011;57203;42.672;23.334;2022-07-12T00:49:53;3.3;;;1.2;;
69917;SDS011;57203;42.672;23.334;2022-07-12T00:50:53;1.6;;;1.5;;
69917;SDS011;57203;42.672;23.334;2022-07-12T00:51:53;3.5;;;1.2;;
69917;SDS011;57203;42.672;23.334;2022-07-12T00:52:54;2.6;;;1.5;;
69917;SDS011;57203;42.672;23.334;2022-07-12T00:53:54;1.3;;;1.2;;
69917;SDS011;57203;42.672;23.334;2022-07-12T00:54:54;1.3;;;1.4;;
69917;SDS011;57203;42.672;23.334;2022-07-12T00:55:55;2.3;;;1.3;;
69917;SDS011;57203;42.672;23.334;2022-07-12T00:56:54;1.5;;;1.2;;
69917;SDS011;57203;42.672;23.334;2022-07-12T00:58:55;2.1;;;1.3;;
69917;SDS011;57203;42.672;23.334;2022-07-12T00:59:55;2.1;;;1.4;;
69917;SDS011;57203;42.672;23.334;2022-07-12T01:00:55;3.7;;;1.2;;
69917;SDS011;57203;42.672;23.334;2022-07-12T01:01:55;3.8;;;1.5;;
69917;SDS011;57203;42.672;23.334;2022-07-12T01:02:56;3.8;;;1.3;;
69917;SDS011;57203;42.672;23.334;2022-07-12T01:03:56;1.9;;;1.1;;
69917;SDS011;57203;42.672;23.334;2022-07-12T01:04:56;2.0;;;1.3;;
69917;SDS011;57203;42.672;23.334;2022-07-12T01:05:56;2.7;;;1.5;;
69917;SDS011;57203;42.672;23.334;2022-07-12T01:07:56;4.5;;;1.3;;
69917;SDS011;57203;42.672;23.334;2022-07-12T01:09:58;3.1;;;1.5;;
69917;SDS011;57203;42.672;23.334;2022-07-12T01:11:57;3.6;;;1.3;;
69917;SDS011;57203;42.672;23.334;2022-07-12T01:12:57;2.9;;;1.5;;
69917;SDS011;57203;42.672;23.334;2022-07-12T01:13:57;2.6;;;1.6;;
69917;SDS011;57203;42.672;23.334;2022-07-12T01:14:58;4.5;;;1.4;;
69917;SDS011;57203;42.672;23.334;2022-07-12T01:15:58;3.6;;;1.6;;
69917;SDS011;57203;42.672;23.334;2022-07-12T01:16:58;1.8;;;1.4;;
69917;SDS011;57203;42.672;23.334;2022-07-12T01:17:58;4.1;;;1.2;;
69917;SDS011;57203;42.672;23.334;2022-07-12T01:18:58;3.0;;;1.4;;
69917;SDS011;57203;42.672;23.334;2022-07-12T01:19:59;3.0;;;1.3;;
69917;SDS011;57203;42.672;23.334;2022-07-12T01:21:00;2.2;;;1.2;;
69917;SDS011;57203;42.672;23.334;2022-07-12T01:21:59;2.2;;;1.5;;
69917;SDS011;57203;42.672;23.334;2022-07-12T01:26:00;3.1;;;1.6;;
69917;SDS011;57203;42.672;23.334;2022-07-12T01:27:02;2.6;;;1.8;;
69917;SDS011;57203;42.672;23.334;2022-07-12T01:28:00;3.5;;;1.4;;
69917;SDS011;57203;42.672;23.334;2022-07-12T01:29:00;3.5;;;2.0;;
69917;SDS011;57203;42.672;23.334;2022-07-12T01:30:01;4.7;;;1.6;;
69917;SDS011;57203;42.672;23.334;2022-07-12T01:31:01;3.0;;;1.4;;
69917;SDS011;57203;42.672;23.334;2022-07-12T01:32:01;3.0;;;1.7;;
69917;SDS011;57203;42.672;23.334;2022-07-12T01:33:01;3.4;;;1.6;;
69917;SDS011;57203;42.672;23.334;2022-07-12T01:35:03;2.4;;;1.9;;
69917;SDS011;57203;42.672;23.334;2022-07-12T01:37:02;2.6;;;1.6;;
69917;SDS011;57203;42.672;23.334;2022-07-12T01:39:03;2.9;;;2.0;;
69917;SDS011;57203;42.672;23.334;2022-07-12T01:41:03;4.0;;;1.6;;
69917;SDS011;57203;42.672;23.334;2022-07-12T01:42:03;3.0;;;1.8;;
69917;SDS011;57203;42.672;23.334;2022-07-12T01:43:03;3.4;;;1.9;;
69917;SDS011;57203;42.672;23.334;2022-07-12T01:44:03;3.4;;;2.0;;
69917;SDS011;57203;42.672;23.334;2022-07-12T01:45:04;2.6;;;2.1;;
69917;SDS011;57203;42.672;23.334;2022-07-12T01:46:04;3.7;;;2.2;;
69917;SDS011;57203;42.672;23.334;2022-07-12T01:47:04;3.5;;;2.0;;
69917;SDS011;57203;42.672;23.334;2022-07-12T01:48:04;3.6;;;2.2;;
69917;SDS011;57203;42.672;23.334;2022-07-12T01:49:04;3.6;;;2.0;;
69917;SDS011;57203;42.672;23.334;2022-07-12T01:50:05;4.3;;;2.2;;
69917;SDS011;57203;42.672;23.334;2022-07-12T01:51:05;6.3;;;2.0;;
69917;SDS011;57203;42.672;23.334;2022-07-12T01:52:05;3.1;;;2.4;;
69917;SDS011;57203;42.672;23.334;2022-07-12T01:53:05;3.1;;;2.2;;
69917;SDS011;57203;42.672;23.334;2022-07-12T01:54:06;2.7;;;2.4;;
69917;SDS011;57203;42.672;23.334;2022-07-12T01:55:06;3.4;;;2.5;;
69917;SDS011;57203;42.672;23.334;2022-07-12T01:56:06;3.4;;;2.6;;
69917;SDS011;57203;42.672;23.334;2022-07-12T01:57:06;3.9;;;2.8;;
69917;SDS011;57203;42.672;23.334;2022-07-12T01:58:06;4.1;;;2.6;;
69917;SDS011;57203;42.672;23.334;2022-07-12T01:59:06;3.0;;;2.7;;
69917;SDS011;57203;42.672;23.334;2022-07-12T02:00:07;3.2;;;2.9;;
69917;SDS011;57203;42.672;23.334;2022-07-12T02:01:07;3.2;;;3.2;;
69917;SDS011;57203;42.672;23.334;2022-07-12T02:04:07;4.4;;;3.3;;
69917;SDS011;57203;42.672;23.334;2022-07-12T02:05:08;5.2;;;3.8;;
69917;SDS011;57203;42.672;23.334;2022-07-12T02:06:08;5.1;;;4.1;;
69917;SDS011;57203;42.672;23.334;2022-07-12T02:07:08;5.2;;;4.0;;
69917;SDS011;57203;42.672;23.334;2022-07-12T02:08:08;5.2;;;4.4;;
69917;SDS011;57203;42.672;23.334;2022-07-12T02:09:08;4.9;;;4.7;;
69917;SDS011;57203;42.672;23.334;2022-07-12T02:10:09;5.5;;;4.9;;
69917;SDS011;57203;42.672;23.334;2022-07-12T02:11:08;7.6;;;4.8;;
69917;SDS011;57203;42.672;23.334;2022-07-12T02:12:09;5.1;;;4.6;;
69917;SDS011;57203;42.672;23.334;2022-07-12T02:13:09;5.1;;;5.1;;
69917;SDS011;57203;42.672;23.334;2022-07-12T02:14:09;5.6;;;4.7;;
69917;SDS011;57203;42.672;23.334;2022-07-12T02:15:10;5.2;;;4.6;;
69917;SDS011;57203;42.672;23.334;2022-07-12T02:16:10;5.2;;;4.9;;
69917;SDS011;57203;42.672;23.334;2022-07-12T02:17:10;5.2;;;4.7;;
69917;SDS011;57203;42.672;23.334;2022-07-12T02:18:10;7.1;;;5.0;;
69917;SDS011;57203;42.672;23.334;2022-07-12T02:19:10;7.1;;;4.3;;
69917;SDS011;57203;42.672;23.334;2022-07-12T02:20:10;5.4;;;4.5;;
69917;SDS011;57203;42.672;23.334;2022-07-12T02:21:10;5.0;;;4.3;;
69917;SDS011;57203;42.672;23.334;2022-07-12T02:22:10;4.8;;;4.9;;
69917;SDS011;57203;42.672;23.334;2022-07-12T02:23:11;7.1;;;4.7;;
69917;SDS011;57203;42.672;23.334;2022-07-12T02:24:11;5.2;;;4.8;;
69917;SDS011;57203;42.672;23.334;2022-07-12T02:25:11;7.6;;;4.9;;
69917;SDS011;57203;42.672;23.334;2022-07-12T02:26:11;6.1;;;4.7;;
69917;SDS011;57203;42.672;23.334;2022-07-12T02:27:11;5.3;;;5.0;;
69917;SDS011;57203;42.672;23.334;2022-07-12T02:28:12;5.9;;;4.9;;
69917;SDS011;57203;42.672;23.334;2022-07-12T02:29:12;6.7;;;5.1;;
69917;SDS011;57203;42.672;23.334;2022-07-12T02:30:12;5.7;;;4.9;;
69917;SDS011;57203;42.672;23.334;2022-07-12T02:32:12;6.0;;;5.0;;
69917;SDS011;57203;42.672;23.334;2022-07-12T02:33:12;6.9;;;4.8;;
69917;SDS011;57203;42.672;23.334;2022-07-12T02:34:13;7.3;;;5.1;;
69917;SDS011;57203;42.672;23.334;2022-07-12T02:35:13;7.3;;;5.3;;
69917;SDS011;57203;42.672;23.334;2022-07-12T02:36:13;5.5;;;4.9;;
69917;SDS011;57203;42.672;23.334;2022-07-12T02:37:13;5.5;;;5.1;;
69917;SDS011;57203;42.672;23.334;2022-07-12T02:38:13;6.8;;;4.9;;
69917;SDS011;57203;42.672;23.334;2022-07-12T02:39:14;4.8;;;4.4;;
69917;SDS011;57203;42.672;23.334;2022-07-12T02:40:14;4.8;;;4.5;;
69917;SDS011;57203;42.672;23.334;2022-07-12T02:41:14;4.9;;;4.9;;
69917;SDS011;57203;42.672;23.334;2022-07-12T02:43:14;5.5;;;5.3;;
69917;SDS011;57203;42.672;23.334;2022-07-12T02:46:15;9.4;;;5.6;;
69917;SDS011;57203;42.672;23.334;2022-07-12T02:47:15;7.9;;;5.5;;
69917;SDS011;57203;42.672;23.334;2022-07-12T02:48:15;6.9;;;5.3;;
69917;SDS011;57203;42.672;23.334;2022-07-12T02:49:15;5.8;;;5.7;;
69917;SDS011;57203;42.672;23.334;2022-07-12T02:50:16;8.0;;;5.2;;
69917;SDS011;57203;42.672;23.334;2022-07-12T02:51:16;6.9;;;5.6;;
69917;SDS011;57203;42.672;23.334;2022-07-12T02:53:16;6.6;;;5.2;;
69917;SDS011;57203;42.672;23.334;2022-07-12T02:54:16;6.1;;;5.0;;
69917;SDS011;57203;42.672;23.334;2022-07-12T02:56:17;6.5;;;5.3;;
69917;SDS011;57203;42.672;23.334;2022-07-12T02:57:17;7.6;;;5.4;;
69917;SDS011;57203;42.672;23.334;2022-07-12T02:58:17;6.2;;;5.3;;
69917;SDS011;57203;42.672;23.334;2022-07-12T02:59:17;6.8;;;4.8;;
69917;SDS011;57203;42.672;23.334;2022-07-12T03:01:17;6.4;;;5.4;;
69917;SDS011;57203;42.672;23.334;2022-07-12T03:02:17;5.9;;;4.6;;
69917;SDS011;57203;42.672;23.334;2022-07-12T03:03:18;6.0;;;4.7;;
69917;SDS011;57203;42.672;23.334;2022-07-12T03:05:18;5.4;;;4.1;;
69917;SDS011;57203;42.672;23.334;2022-07-12T03:06:18;5.7;;;4.4;;
69917;SDS011;57203;42.672;23.334;2022-07-12T03:07:19;5.2;;;4.7;;
69917;SDS011;57203;42.672;23.334;2022-07-12T03:08:19;5.2;;;4.6;;
69917;SDS011;57203;42.672;23.334;2022-07-12T03:09:19;5.1;;;4.7;;
69917;SDS011;57203;42.672;23.334;2022-07-12T03:10:19;6.2;;;4.8;;
69917;SDS011;57203;42.672;23.334;2022-07-12T03:11:19;6.2;;;5.0;;
69917;SDS011;57203;42.672;23.334;2022-07-12T03:12:19;6.0;;;4.9;;
69917;SDS011;57203;42.672;23.334;2022-07-12T03:13:20;8.6;;;5.0;;
69917;SDS011;57203;42.672;23.334;2022-07-12T03:14:20;6.8;;;4.4;;
69917;SDS011;57203;42.672;23.334;2022-07-12T03:15:20;4.8;;;4.5;;
69917;SDS011;57203;42.672;23.334;2022-07-12T03:17:20;5.0;;;4.6;;
69917;SDS011;57203;42.672;23.334;2022-07-12T03:20:21;5.1;;;4.9;;
69917;SDS011;57203;42.672;23.334;2022-07-12T03:21:21;6.4;;;4.6;;
69917;SDS011;57203;42.672;23.334;2022-07-12T03:22:21;5.7;;;4.3;;
69917;SDS011;57203;42.672;23.334;2022-07-12T03:24:21;4.7;;;4.4;;
69917;SDS011;57203;42.672;23.334;2022-07-12T03:25:22;5.4;;;4.6;;
69917;SDS011;57203;42.672;23.334;2022-07-12T03:26:22;7.1;;;4.5;;
69917;SDS011;57203;42.672;23.334;2022-07-12T03:27:22;5.8;;;4.8;;
69917;SDS011;57203;42.672;23.334;2022-07-12T03:28:22;5.8;;;4.5;;
69917;SDS011;57203;42.672;23.334;2022-07-12T03:29:22;5.9;;;4.9;;
69917;SDS011;57203;42.672;23.334;2022-07-12T03:30:23;5.5;;;5.2;;
69917;SDS011;57203;42.672;23.334;2022-07-12T03:31:23;6.9;;;4.8;;
69917;SDS011;57203;42.672;23.334;2022-07-12T03:32:23;6.8;;;4.6;;
69917;SDS011;57203;42.672;23.334;2022-07-12T03:33:23;6.3;;;4.9;;
69917;SDS011;57203;42.672;23.334;2022-07-12T03:34:23;6.3;;;5.3;;
69917;SDS011;57203;42.672;23.334;2022-07-12T03:35:23;6.1;;;4.5;;
69917;SDS011;57203;42.672;23.334;2022-07-12T03:36:24;6.1;;;4.8;;
69917;SDS011;57203;42.672;23.334;2022-07-12T03:37:24;6.8;;;4.7;;
69917;SDS011;57203;42.672;23.334;2022-07-12T03:39:24;5.9;;;4.4;;
69917;SDS011;57203;42.672;23.334;2022-07-12T03:40:24;6.0;;;4.2;;
69917;SDS011;57203;42.672;23.334;2022-07-12T03:41:25;4.6;;;4.8;;
69917;SDS011;57203;42.672;23.334;2022-07-12T03:42:25;8.9;;;4.4;;
69917;SDS011;57203;42.672;23.334;2022-07-12T03:43:25;5.8;;;4.7;;
69917;SDS011;57203;42.672;23.334;2022-07-12T03:44:25;8.0;;;4.4;;
69917;SDS011;57203;42.672;23.334;2022-07-12T03:45:25;8.4;;;4.3;;
69917;SDS011;57203;42.672;23.334;2022-07-12T03:47:26;4.9;;;4.4;;
69917;SDS011;57203;42.672;23.334;2022-07-12T03:49:26;7.8;;;4.6;;
69917;SDS011;57203;42.672;23.334;2022-07-12T03:50:26;7.8;;;4.1;;
69917;SDS011;57203;42.672;23.334;2022-07-12T03:52:27;6.5;;;4.4;;
69917;SDS011;57203;42.672;23.334;2022-07-12T03:53:27;6.5;;;4.2;;
69917;SDS011;57203;42.672;23.334;2022-07-12T03:54:27;5.3;;;4.4;;
69917;SDS011;57203;42.672;23.334;2022-07-12T03:55:27;5.3;;;4.2;;
69917;SDS011;57203;42.672;23.334;2022-07-12T03:56:27;7.4;;;4.1;;
69917;SDS011;57203;42.672;23.334;2022-07-12T03:57:27;7.4;;;4.2;;
69917;SDS011;57203;42.672;23.334;2022-07-12T03:58:28;7.6;;;4.6;;
69917;SDS011;57203;42.672;23.334;2022-07-12T03:59:28;6.2;;;4.2;;
69917;SDS011;57203;42.672;23.334;2022-07-12T04:00:28;6.2;;;3.6;;
69917;SDS011;57203;42.672;23.334;2022-07-12T04:01:28;9.5;;;4.3;;
69917;SDS011;57203;42.672;23.334;2022-07-12T04:02:28;5.2;;;4.1;;
69917;SDS011;57203;42.672;23.334;2022-07-12T04:03:29;5.1;;;4.2;;
69917;SDS011;57203;42.672;23.334;2022-07-12T04:04:29;6.0;;;3.9;;
69917;SDS011;57203;42.672;23.334;2022-07-12T04:05:29;6.0;;;4.2;;
69917;SDS011;57203;42.672;23.334;2022-07-12T04:06:29;5.2;;;4.4;;
69917;SDS011;57203;42.672;23.334;2022-07-12T04:07:29;8.4;;;4.5;;
69917;SDS011;57203;42.672;23.334;2022-07-12T04:09:30;7.4;;;4.9;;
69917;SDS011;57203;42.672;23.334;2022-07-12T04:10:30;7.4;;;4.8;;
69917;SDS011;57203;42.672;23.334;2022-07-12T04:11:30;5.3;;;5.0;;
69917;SDS011;57203;42.672;23.334;2022-07-12T04:12:30;8.0;;;4.5;;
69917;SDS011;57203;42.672;23.334;2022-07-12T04:13:30;5.0;;;5.5;;
69917;SDS011;57203;42.672;23.334;2022-07-12T04:14:31;7.1;;;5.6;;
69917;SDS011;57203;42.672;23.334;2022-07-12T04:15:31;8.3;;;5.0;;
69917;SDS011;57203;42.672;23.334;2022-07-12T04:17:31;5.6;;;4.9;;
69917;SDS011;57203;42.672;23.334;2022-07-12T04:18:31;6.7;;;5.2;;
69917;SDS011;57203;42.672;23.334;2022-07-12T04:19:32;6.7;;;4.9;;
69917;SDS011;57203;42.672;23.334;2022-07-12T04:20:32;7.5;;;4.5;;
69917;SDS011;57203;42.672;23.334;2022-07-12T04:21:32;6.6;;;5.0;;
69917;SDS011;57203;42.672;23.334;2022-07-12T04:22:32;6.5;;;4.9;;
69917;SDS011;57203;42.672;23.334;2022-07-12T04:23:32;8.4;;;4.6;;
69917;SDS011;57203;42.672;23.334;2022-07-12T04:24:33;5.1;;;4.5;;
69917;SDS011;57203;42.672;23.334;2022-07-12T04:25:33;5.1;;;5.1;;
69917;SDS011;57203;42.672;23.334;2022-07-12T04:26:33;7.8;;;4.6;;
69917;SDS011;57203;42.672;23.334;2022-07-12T04:28:34;7.8;;;4.5;;
69917;SDS011;57203;42.672;23.334;2022-07-12T04:29:33;4.9;;;4.1;;
69917;SDS011;57203;42.672;23.334;2022-07-12T04:30:33;4.9;;;4.3;;
69917;SDS011;57203;42.672;23.334;2022-07-12T04:31:34;5.7;;;4.5;;
69917;SDS011;57203;42.672;23.334;2022-07-12T04:32:34;8.6;;;4.7;;
69917;SDS011;57203;42.672;23.334;2022-07-12T04:33:34;6.9;;;4.5;;
69917;SDS011;57203;42.672;23.334;2022-07-12T04:35:35;5.5;;;4.6;;
69917;SDS011;57203;42.672;23.334;2022-07-12T04:36:35;6.8;;;4.4;;
69917;SDS011;57203;42.672;23.334;2022-07-12T04:38:35;5.2;;;4.5;;
69917;SDS011;57203;42.672;23.334;2022-07-12T04:39:35;6.9;;;4.4;;
69917;SDS011;57203;42.672;23.334;2022-07-12T04:40:35;6.9;;;4.1;;
69917;SDS011;57203;42.672;23.334;2022-07-12T04:43:36;5.3;;;4.4;;
69917;SDS011;57203;42.672;23.334;2022-07-12T04:44:36;6.3;;;4.3;;
69917;SDS011;57203;42.672;23.334;2022-07-12T04:45:36;6.0;;;4.7;;
69917;SDS011;57203;42.672;23.334;2022-07-12T04:46:37;5.2;;;4.3;;
69917;SDS011;57203;42.672;23.334;2022-07-12T04:47:37;5.4;;;4.4;;
69917;SDS011;57203;42.672;23.334;2022-07-12T04:48:37;5.9;;;4.9;;
69917;SDS011;57203;42.672;23.334;2022-07-12T04:49:37;8.1;;;4.5;;
69917;SDS011;57203;42.672;23.334;2022-07-12T04:50:38;6.0;;;5.2;;
69917;SDS011;57203;42.672;23.334;2022-07-12T04:51:38;6.1;;;5.0;;
69917;SDS011;57203;42.672;23.334;2022-07-12T04:53:38;6.2;;;5.1;;
69917;SDS011;57203;42.672;23.334;2022-07-12T04:54:38;8.5;;;4.7;;
69917;SDS011;57203;42.672;23.334;2022-07-12T04:55:38;5.2;;;4.5;;
69917;SDS011;57203;42.672;23.334;2022-07-12T04:56:38;6.3;;;4.9;;
69917;SDS011;57203;42.672;23.334;2022-07-12T04:57:39;6.3;;;4.8;;
69917;SDS011;57203;42.672;23.334;2022-07-12T04:58:39;6.5;;;5.4;;
69917;SDS011;57203;42.672;23.334;2022-07-12T04:59:39;7.3;;;4.7;;
69917;SDS011;57203;42.672;23.334;2022-07-12T05:00:39;5.8;;;5.3;;
69917;SDS011;57203;42.672;23.334;2022-07-12T05:01:39;7.1;;;4.8;;
69917;SDS011;57203;42.672;23.334;2022-07-12T05:02:40;6.1;;;4.9;;
69917;SDS011;57203;42.672;23.334;2022-07-12T05:03:40;5.6;;;4.7;;
69917;SDS011;57203;42.672;23.334;2022-07-12T05:04:40;5.4;;;4.8;;
69917;SDS011;57203;42.672;23.334;2022-07-12T05:06:40;6.4;;;4.9;;
69917;SDS011;57203;42.672;23.334;2022-07-12T05:07:40;7.4;;;5.2;;
69917;SDS011;57203;42.672;23.334;2022-07-12T05:10:41;8.4;;;5.1;;
69917;SDS011;57203;42.672;23.334;2022-07-12T05:12:41;6.7;;;5.9;;
69917;SDS011;57203;42.672;23.334;2022-07-12T05:13:42;8.7;;;4.9;;
69917;SDS011;57203;42.672;23.334;2022-07-12T05:14:42;7.6;;;5.3;;
69917;SDS011;57203;42.672;23.334;2022-07-12T05:15:42;7.0;;;5.7;;
69917;SDS011;57203;42.672;23.334;2022-07-12T05:16:42;8.9;;;5.0;;
69917;SDS011;57203;42.672;23.334;2022-07-12T05:17:42;5.6;;;5.2;;
69917;SDS011;57203;42.672;23.334;2022-07-12T05:18:43;8.4;;;5.9;;
69917;SDS011;57203;42.672;23.334;2022-07-12T05:19:43;8.0;;;6.1;;
69917;SDS011;57203;42.672;23.334;2022-07-12T05:20:43;8.7;;;5.8;;
69917;SDS011;57203;42.672;23.334;2022-07-12T05:21:43;8.7;;;5.9;;
69917;SDS011;57203;42.672;23.334;2022-07-12T05:22:43;8.9;;;6.2;;
69917;SDS011;57203;42.672;23.334;2022-07-12T05:23:44;8.9;;;5.8;;
69917;SDS011;57203;42.672;23.334;2022-07-12T05:24:44;9.2;;;5.6;;
69917;SDS011;57203;42.672;23.334;2022-07-12T05:25:44;6.9;;;5.9;;
69917;SDS011;57203;42.672;23.334;2022-07-12T05:26:44;7.8;;;6.9;;
69917;SDS011;57203;42.672;23.334;2022-07-12T05:27:44;9.9;;;5.9;;
69917;SDS011;57203;42.672;23.334;2022-07-12T05:28:45;10.1;;;6.5;;
69917;SDS011;57203;42.672;23.334;2022-07-12T05:29:45;12.3;;;5.2;;
69917;SDS011;57203;42.672;23.334;2022-07-12T05:30:45;5.9;;;5.7;;
69917;SDS011;57203;42.672;23.334;2022-07-12T05:31:45;10.2;;;5.6;;
69917;SDS011;57203;42.672;23.334;2022-07-12T05:32:45;8.9;;;4.9;;
69917;SDS011;57203;42.672;23.334;2022-07-12T05:33:45;7.6;;;5.3;;
69917;SDS011;57203;42.672;23.334;2022-07-12T05:34:46;7.0;;;6.5;;
69917;SDS011;57203;42.672;23.334;2022-07-12T05:35:47;10.1;;;4.9;;
69917;SDS011;57203;42.672;23.334;2022-07-12T05:36:46;8.9;;;5.5;;
69917;SDS011;57203;42.672;23.334;2022-07-12T05:37:46;8.9;;;4.8;;
69917;SDS011;57203;42.672;23.334;2022-07-12T05:39:47;7.6;;;5.0;;
69917;SDS011;57203;42.672;23.334;2022-07-12T05:40:47;8.4;;;5.1;;
69917;SDS011;57203;42.672;23.334;2022-07-12T05:41:47;8.4;;;5.3;;
69917;SDS011;57203;42.672;23.334;2022-07-12T05:42:47;11.0;;;4.8;;
69917;SDS011;57203;42.672;23.334;2022-07-12T05:44:48;6.6;;;4.6;;
69917;SDS011;57203;42.672;23.334;2022-07-12T05:45:48;7.2;;;4.8;;
69917;SDS011;57203;42.672;23.334;2022-07-12T05:46:48;7.0;;;4.5;;
69917;SDS011;57203;42.672;23.334;2022-07-12T05:47:48;7.1;;;4.6;;
69917;SDS011;57203;42.672;23.334;2022-07-12T05:48:48;7.1;;;4.9;;
69917;SDS011;57203;42.672;23.334;2022-07-12T05:49:49;10.4;;;4.7;;
69917;SDS011;57203;42.672;23.334;2022-07-12T05:50:49;5.9;;;4.3;;
69917;SDS011;57203;42.672;23.334;2022-07-12T05:51:49;5.9;;;3.9;;
69917;SDS011;57203;42.672;23.334;2022-07-12T05:52:49;6.0;;;4.4;;
69917;SDS011;57203;42.672;23.334;2022-07-12T05:53:49;9.8;;;4.8;;
69917;SDS011;57203;42.672;23.334;2022-07-12T05:54:50;8.6;;;4.6;;
69917;SDS011;57203;42.672;23.334;2022-07-12T05:56:50;9.4;;;4.9;;
69917;SDS011;57203;42.672;23.334;2022-07-12T05:57:50;9.4;;;4.3;;
69917;SDS011;57203;42.672;23.334;2022-07-12T05:58:50;7.5;;;4.2;;
69917;SDS011;57203;42.672;23.334;2022-07-12T05:59:51;7.1;;;4.0;;
69917;SDS011;57203;42.672;23.334;2022-07-12T06:00:51;4.7;;;3.9;;
69917;SDS011;57203;42.672;23.334;2022-07-12T06:01:51;6.5;;;4.2;;
69917;SDS011;57203;42.672;23.334;2022-07-12T06:03:51;6.1;;;3.8;;
69917;SDS011;57203;42.672;23.334;2022-07-12T06:04:52;7.8;;;3.5;;
69917;SDS011;57203;42.672;23.334;2022-07-12T06:05:52;6.7;;;3.6;;
69917;SDS011;57203;42.672;23.334;2022-07-12T06:06:52;6.7;;;3.9;;
69917;SDS011;57203;42.672;23.334;2022-07-12T06:08:52;9.8;;;3.8;;
69917;SDS011;57203;42.672;23.334;2022-07-12T06:09:53;8.1;;;3.4;;
69917;SDS011;57203;42.672;23.334;2022-07-12T06:11:53;7.4;;;3.7;;
69917;SDS011;57203;42.672;23.334;2022-07-12T06:12:53;6.0;;;3.1;;
69917;SDS011;57203;42.672;23.334;2022-07-12T06:13:54;7.7;;;3.3;;
69917;SDS011;57203;42.672;23.334;2022-07-12T06:14:54;6.6;;;2.9;;
69917;SDS011;57203;42.672;23.334;2022-07-12T06:15:54;5.9;;;3.1;;
69917;SDS011;57203;42.672;23.334;2022-07-12T06:16:54;7.6;;;2.7;;
69917;SDS011;57203;42.672;23.334;2022-07-12T06:17:54;5.7;;;3.1;;
69917;SDS011;57203;42.672;23.334;2022-07-12T06:18:54;6.7;;;2.6;;
69917;SDS011;57203;42.672;23.334;2022-07-12T06:19:55;5.6;;;3.0;;
69917;SDS011;57203;42.672;23.334;2022-07-12T06:20:55;6.3;;;2.9;;
69917;SDS011;57203;42.672;23.334;2022-07-12T06:21:55;6.4;;;3.0;;
69917;SDS011;57203;42.672;23.334;2022-07-12T06:22:55;6.8;;;3.3;;
69917;SDS011;57203;42.672;23.334;2022-07-12T06:23:56;7.5;;;3.0;;
69917;SDS011;57203;42.672;23.334;2022-07-12T06:24:56;6.9;;;2.6;;
69917;SDS011;57203;42.672;23.334;2022-07-12T06:25:56;6.9;;;2.8;;
69917;SDS011;57203;42.672;23.334;2022-07-12T06:27:59;5.8;;;2.9;;
69917;SDS011;57203;42.672;23.334;2022-07-12T06:28:57;7.6;;;2.6;;
69917;SDS011;57203;42.672;23.334;2022-07-12T06:29:57;5.2;;;2.7;;
69917;SDS011;57203;42.672;23.334;2022-07-12T06:30:57;4.7;;;3.0;;
69917;SDS011;57203;42.672;23.334;2022-07-12T06:32:57;5.8;;;2.6;;
69917;SDS011;57203;42.672;23.334;2022-07-12T06:33:58;9.0;;;2.2;;
69917;SDS011;57203;42.672;23.334;2022-07-12T06:34:58;4.2;;;1.8;;
69917;SDS011;57203;42.672;23.334;2022-07-12T06:36:58;6.5;;;1.6;;
69917;SDS011;57203;42.672;23.334;2022-07-12T06:37:58;6.3;;;1.8;;
69917;SDS011;57203;42.672;23.334;2022-07-12T06:39:59;4.7;;;1.7;;
69917;SDS011;57203;42.672;23.334;2022-07-12T06:40:59;4.1;;;2.0;;
69917;SDS011;57203;42.672;23.334;2022-07-12T06:41:59;4.9;;;1.8;;
69917;SDS011;57203;42.672;23.334;2022-07-12T06:43:00;4.9;;;1.9;;
69917;SDS011;57203;42.672;23.334;2022-07-12T06:44:00;6.6;;;2.1;;
69917;SDS011;57203;42.672;23.334;2022-07-12T06:45:00;4.7;;;2.2;;
69917;SDS011;57203;42.672;23.334;2022-07-12T06:46:00;5.0;;;2.0;;
69917;SDS011;57203;42.672;23.334;2022-07-12T06:48:01;7.0;;;2.1;;
69917;SDS011;57203;42.672;23.334;2022-07-12T06:49:01;7.0;;;2.0;;
69917;SDS011;57203;42.672;23.334;2022-07-12T06:50:01;5.8;;;2.3;;
69917;SDS011;57203;42.672;23.334;2022-07-12T06:51:01;5.0;;;2.1;;
69917;SDS011;57203;42.672;23.334;2022-07-12T06:52:02;5.7;;;2.0;;
69917;SDS011;57203;42.672;23.334;2022-07-12T06:54:02;5.1;;;2.2;;
69917;SDS011;57203;42.672;23.334;2022-07-12T06:56:02;6.0;;;2.1;;
69917;SDS011;57203;42.672;23.334;2022-07-12T06:57:03;6.0;;;2.0;;
69917;SDS011;57203;42.672;23.334;2022-07-12T06:58:03;6.7;;;1.8;;
69917;SDS011;57203;42.672;23.334;2022-07-12T06:59:03;4.6;;;2.0;;
69917;SDS011;57203;42.672;23.334;2022-07-12T07:03:05;4.7;;;2.1;;
69917;SDS011;57203;42.672;23.334;2022-07-12T07:04:04;8.3;;;2.0;;
69917;SDS011;57203;42.672;23.334;2022-07-12T07:05:05;5.3;;;2.6;;
69917;SDS011;57203;42.672;23.334;2022-07-12T07:06:05;8.5;;;2.1;;
69917;SDS011;57203;42.672;23.334;2022-07-12T07:09:05;4.5;;;2.0;;
69917;SDS011;57203;42.672;23.334;2022-07-12T07:10:06;5.7;;;2.1;;
69917;SDS011;57203;42.672;23.334;2022-07-12T07:11:05;6.2;;;1.8;;
69917;SDS011;57203;42.672;23.334;2022-07-12T07:12:06;4.7;;;2.2;;
69917;SDS011;57203;42.672;23.334;2022-07-12T07:13:07;5.3;;;1.8;;
69917;SDS011;57203;42.672;23.334;2022-07-12T07:14:06;3.5;;;2.4;;